createdAt,value
2023-04-01T00:00:20.127Z,1.00
2023-04-01T00:02:49.315Z,0.50
2023-04-01T00:05:17.699Z,1.00
2023-04-01T00:07:45.651Z,0.90
2023-04-01T00:10:13.835Z,0.93
2023-04-01T00:12:41.807Z,0.97
2023-04-01T00:15:11.000Z,0.87
2023-04-01T00:17:39.327Z,0.90
2023-04-01T00:20:10.254Z,0.87
2023-04-01T00:22:38.330Z,0.80
2023-04-01T00:25:06.985Z,0.60
2023-04-01T00:27:34.661Z,0.60
2023-04-01T00:30:02.487Z,0.73
2023-04-01T00:32:31.495Z,0.93
2023-04-01T00:35:00.424Z,0.80
2023-04-01T00:37:29.751Z,0.70
2023-04-01T00:39:57.867Z,0.53
2023-04-01T00:42:26.714Z,0.70
2023-04-01T00:44:55.373Z,0.70
2023-04-01T00:47:23.338Z,0.70
2023-04-01T00:49:52.197Z,0.70
2023-04-01T00:52:21.081Z,0.60
2023-04-01T00:54:51.567Z,0.60
2023-04-01T00:57:21.025Z,0.50
2023-04-01T00:59:50.751Z,0.60
2023-04-01T01:02:19.438Z,0.53
2023-04-01T01:04:47.719Z,0.60
2023-04-01T01:07:21.491Z,0.60
2023-04-01T01:09:53.877Z,0.67
2023-04-01T01:12:22.708Z,0.93
2023-04-01T01:15:00.539Z,0.60
2023-04-01T01:17:36.459Z,0.60
2023-04-01T01:20:36.715Z,0.60
2023-04-01T01:23:25.336Z,0.60
2023-04-01T01:25:58.758Z,0.73
2023-04-01T01:28:33.836Z,0.50
2023-04-01T01:31:04.357Z,0.60
2023-04-01T01:33:44.949Z,0.83
2023-04-01T01:36:14.778Z,0.43
2023-04-01T01:38:42.673Z,0.77
2023-04-01T01:41:10.355Z,0.60
2023-04-01T01:43:39.490Z,0.53
2023-04-01T01:46:08.752Z,0.70
2023-04-01T01:48:37.124Z,0.60
2023-04-01T01:51:05.243Z,0.77
2023-04-01T01:53:34.376Z,0.70
2023-04-01T01:56:02.470Z,0.70
2023-04-01T01:58:31.687Z,0.50
2023-04-01T02:00:59.853Z,0.63
2023-04-01T02:03:28.513Z,1.00
2023-04-01T02:05:57.303Z,0.40
2023-04-01T02:08:26.378Z,0.77
2023-04-01T02:10:58.054Z,0.73
2023-04-01T02:13:28.785Z,0.80
2023-04-01T02:15:58.065Z,0.57
2023-04-01T02:21:00.350Z,0.60
2023-04-01T02:23:28.018Z,0.47
2023-04-01T02:25:57.280Z,0.70
2023-04-01T02:28:24.951Z,0.63
2023-04-01T02:30:52.687Z,0.80
2023-04-01T02:33:21.162Z,0.70
2023-04-01T02:35:48.957Z,0.63
2023-04-01T02:38:17.444Z,1.10
2023-04-01T02:40:47.068Z,0.80
2023-04-01T02:43:17.121Z,0.90
2023-04-01T02:45:44.968Z,0.70
2023-04-01T02:48:13.693Z,0.70
2023-04-01T02:50:41.378Z,0.60
2023-04-01T02:53:09.314Z,0.70
2023-04-01T02:55:36.946Z,0.60
2023-04-01T02:58:04.810Z,0.50
2023-04-01T03:00:33.883Z,0.70
2023-04-01T03:03:01.819Z,0.43
2023-04-01T03:05:29.577Z,0.60
2023-04-01T03:07:57.395Z,0.90
2023-04-01T03:10:25.017Z,0.47
2023-04-01T03:12:52.775Z,0.53
2023-04-01T03:15:20.603Z,0.40
2023-04-01T03:17:49.816Z,0.50
2023-04-01T03:20:18.004Z,0.50
2023-04-01T03:22:45.648Z,0.50
2023-04-01T03:25:13.478Z,0.60
2023-04-01T03:27:41.244Z,0.90
2023-04-01T03:30:10.433Z,0.50
2023-04-01T03:32:39.026Z,0.60
2023-04-01T03:35:10.631Z,0.50
2023-04-01T03:37:38.301Z,0.70
2023-04-01T03:40:07.462Z,0.80
2023-04-01T03:42:35.896Z,0.63
2023-04-01T03:45:04.284Z,0.90
2023-04-01T03:47:31.947Z,0.90
2023-04-01T03:49:59.761Z,1.10
2023-04-01T03:52:28.760Z,1.07
2023-04-01T03:54:57.119Z,0.90
2023-04-01T03:57:24.807Z,1.10
2023-04-01T03:59:52.661Z,1.10
2023-04-01T04:02:20.437Z,1.30
2023-04-01T04:04:48.543Z,1.10
2023-04-01T04:07:16.178Z,1.50
2023-04-01T04:09:45.452Z,1.20
2023-04-01T04:12:13.089Z,1.43
2023-04-01T04:14:40.905Z,1.60
2023-04-01T04:17:09.180Z,1.30
2023-04-01T04:19:36.829Z,1.60
2023-04-01T04:22:04.646Z,1.40
2023-04-01T04:24:32.297Z,1.30
2023-04-01T04:27:01.524Z,1.20
2023-04-01T04:29:29.154Z,1.30
2023-04-01T04:31:57.098Z,1.23
2023-04-01T04:34:24.833Z,1.47
2023-04-01T04:36:52.657Z,1.13
2023-04-01T04:39:22.323Z,1.20
2023-04-01T04:41:50.232Z,1.10
2023-04-01T04:44:19.254Z,1.00
2023-04-01T04:46:47.242Z,1.23
2023-04-01T04:49:14.962Z,1.30
2023-04-01T04:51:42.979Z,1.00
2023-04-01T04:54:10.655Z,1.20
2023-04-01T04:56:38.550Z,1.10
2023-04-01T04:59:06.275Z,1.10
2023-04-01T05:01:35.463Z,1.33
2023-04-01T05:04:03.268Z,1.10
2023-04-01T05:06:32.258Z,1.20
2023-04-01T05:08:59.898Z,1.10
2023-04-01T05:11:28.264Z,1.10
2023-04-01T05:13:55.962Z,1.10
2023-04-01T05:16:23.894Z,1.20
2023-04-01T05:18:55.188Z,1.30
2023-04-01T05:21:22.799Z,1.20
2023-04-01T05:23:51.611Z,1.00
2023-04-01T05:26:19.220Z,0.87
2023-04-01T05:28:47.043Z,1.20
2023-04-01T05:31:14.725Z,1.23
2023-04-01T05:33:42.583Z,1.10
2023-04-01T05:36:13.060Z,1.00
2023-04-01T05:38:41.162Z,1.00
2023-04-01T05:41:08.866Z,0.87
2023-04-01T05:43:37.866Z,1.17
2023-04-01T05:46:05.678Z,1.33
2023-04-01T05:48:34.964Z,0.80
2023-04-01T05:51:02.735Z,0.90
2023-04-01T05:53:31.898Z,1.00
2023-04-01T05:56:03.781Z,1.10
2023-04-01T05:58:32.674Z,1.30
2023-04-01T06:01:10.110Z,1.13
2023-04-01T06:03:40.610Z,1.00
2023-04-01T06:06:12.921Z,1.20
2023-04-01T06:08:41.941Z,0.70
2023-04-01T06:11:18.709Z,1.13
2023-04-01T06:14:06.571Z,1.40
2023-04-01T06:16:38.905Z,1.00
2023-04-01T06:19:15.350Z,1.17
2023-04-01T06:22:01.200Z,1.07
2023-04-01T06:24:46.116Z,1.30
2023-04-01T06:27:19.106Z,1.43
2023-04-01T06:29:52.526Z,0.90
2023-04-01T06:32:38.784Z,1.10
2023-04-01T06:35:20.640Z,1.10
2023-04-01T06:38:04.163Z,1.23
2023-04-01T06:40:59.008Z,1.00
2023-04-01T06:43:28.075Z,1.50
2023-04-01T06:45:57.230Z,1.67
2023-04-01T06:48:34.643Z,1.50
2023-04-01T06:51:05.602Z,1.40
2023-04-01T06:53:35.365Z,1.40
2023-04-01T06:56:08.392Z,3.60
2023-04-01T06:58:38.164Z,1.60
2023-04-01T07:01:06.671Z,1.60
2023-04-01T07:03:35.751Z,1.57
2023-04-01T07:06:05.185Z,1.20
2023-04-01T07:08:34.093Z,1.20
2023-04-01T07:11:03.466Z,1.17
2023-04-01T07:13:34.023Z,1.40
2023-04-01T07:16:07.296Z,1.23
2023-04-01T07:18:38.063Z,1.10
2023-04-01T07:21:06.387Z,1.00
2023-04-01T07:23:35.285Z,0.90
2023-04-01T07:26:06.069Z,0.73
2023-04-01T07:28:35.776Z,0.90
2023-04-01T07:31:09.866Z,1.27
2023-04-01T07:33:39.809Z,1.23
2023-04-01T07:36:10.302Z,1.30
2023-04-01T07:38:42.365Z,1.07
2023-04-01T07:41:12.803Z,1.30
2023-04-01T07:43:53.330Z,1.10
2023-04-01T07:46:31.674Z,1.20
2023-04-01T07:49:01.249Z,1.20
2023-04-01T07:51:31.147Z,1.30
2023-04-01T07:54:02.838Z,1.47
2023-04-01T07:56:32.519Z,1.40
2023-04-01T07:59:04.588Z,1.70
2023-04-01T08:01:34.731Z,1.87
2023-04-01T08:04:22.504Z,1.50
2023-04-01T08:06:52.897Z,1.63
2023-04-01T08:09:25.030Z,1.80
2023-04-01T08:12:01.723Z,1.73
2023-04-01T08:14:32.863Z,1.90
2023-04-01T08:17:03.503Z,1.40
2023-04-01T08:19:34.065Z,1.47
2023-04-01T08:22:05.566Z,1.27
2023-04-01T08:24:46.320Z,2.00
2023-04-01T08:27:18.161Z,1.53
2023-04-01T08:29:50.332Z,1.80
2023-04-01T08:32:18.530Z,1.80
2023-04-01T08:34:47.522Z,1.80
2023-04-01T08:37:18.592Z,1.90
2023-04-01T08:39:47.765Z,1.80
2023-04-01T08:42:34.308Z,2.07
2023-04-01T08:45:24.321Z,1.83
2023-04-01T08:47:59.198Z,1.40
2023-04-01T08:50:52.592Z,1.77
2023-04-01T08:53:23.188Z,2.83
2023-04-01T08:56:03.372Z,1.60
2023-04-01T08:59:00.754Z,1.83
2023-04-01T09:01:48.831Z,1.20
2023-04-01T09:04:28.063Z,1.50
2023-04-01T09:07:02.728Z,1.53
2023-04-01T09:10:10.351Z,1.50
2023-04-01T09:12:52.052Z,1.80
2023-04-01T09:15:32.585Z,1.90
2023-04-01T09:18:32.864Z,2.10
2023-04-01T09:21:30.457Z,2.13
2023-04-01T09:24:16.674Z,2.50
2023-04-01T09:26:57.298Z,3.63
2023-04-01T09:29:33.621Z,2.60
2023-04-01T09:32:15.193Z,2.47
2023-04-01T09:34:54.792Z,2.40
2023-04-01T09:37:22.866Z,2.80
2023-04-01T09:40:01.800Z,2.63
2023-04-01T09:42:46.984Z,2.40
2023-04-01T09:45:23.462Z,3.03
2023-04-01T09:47:58.174Z,3.63
2023-04-01T09:50:43.972Z,4.20
2023-04-01T09:53:20.925Z,4.27
2023-04-01T09:56:24.774Z,4.33
2023-04-01T09:59:07.028Z,4.67
2023-04-01T10:02:22.880Z,5.10
2023-04-01T10:05:33.094Z,4.57
2023-04-01T10:08:35.940Z,4.67
2023-04-01T10:11:23.524Z,4.40
2023-04-01T10:14:20.791Z,4.30
2023-04-01T10:17:00.134Z,5.10
2023-04-01T10:19:50.802Z,4.60
2023-04-01T10:22:31.235Z,4.23
2023-04-01T10:25:37.409Z,3.70
2023-04-01T10:28:18.435Z,6.63
2023-04-01T10:31:15.899Z,4.90
2023-04-01T10:34:03.669Z,5.37
2023-04-01T10:36:48.984Z,5.93
2023-04-01T10:39:31.643Z,6.40
2023-04-01T10:42:49.945Z,6.43
2023-04-01T10:45:41.946Z,6.27
2023-04-01T10:48:16.694Z,5.23
2023-04-01T10:50:56.132Z,5.33
2023-04-01T10:53:46.448Z,5.90
2023-04-01T10:56:41.546Z,4.07
2023-04-01T10:59:41.946Z,4.10
2023-04-01T11:02:57.300Z,3.97
2023-04-01T11:06:07.899Z,3.77
2023-04-01T11:09:05.681Z,3.23
2023-04-01T11:12:09.938Z,4.37
2023-04-01T11:15:11.163Z,2.97
2023-04-01T11:17:50.127Z,2.63
2023-04-01T11:20:53.171Z,2.97
2023-04-01T11:23:32.869Z,3.00
2023-04-01T11:26:11.649Z,2.50
2023-04-01T11:29:05.307Z,2.87
2023-04-01T11:31:38.708Z,2.40
2023-04-01T11:34:13.815Z,2.90
2023-04-01T11:36:47.006Z,2.87
2023-04-01T11:39:22.631Z,3.03
2023-04-01T11:41:54.060Z,2.70
2023-04-01T11:44:23.446Z,2.90
2023-04-01T11:46:58.861Z,3.47
2023-04-01T11:49:32.517Z,2.93
2023-04-01T11:52:09.185Z,3.37
2023-04-01T11:55:02.462Z,4.10
2023-04-01T11:57:42.260Z,3.90
2023-04-01T12:00:21.518Z,3.77
2023-04-01T12:02:53.868Z,4.23
2023-04-01T12:05:26.616Z,4.47
2023-04-01T12:08:05.228Z,4.53
2023-04-01T12:10:36.722Z,3.80
2023-04-01T12:13:06.679Z,3.10
2023-04-01T12:15:39.886Z,3.67
2023-04-01T12:18:15.553Z,3.40
2023-04-01T12:20:49.258Z,3.30
2023-04-01T12:23:35.373Z,3.93
2023-04-01T12:26:15.767Z,3.73
2023-04-01T12:28:48.628Z,4.60
2023-04-01T12:31:24.712Z,4.40
2023-04-01T12:33:58.816Z,4.90
2023-04-01T12:36:34.609Z,5.20
2023-04-01T12:39:25.354Z,5.47
2023-04-01T12:41:56.753Z,5.30
2023-04-01T12:44:36.302Z,6.43
2023-04-01T12:47:35.257Z,6.83
2023-04-01T12:50:16.660Z,6.47
2023-04-01T12:52:51.649Z,6.83
2023-04-01T12:55:39.950Z,6.90
2023-04-01T12:59:00.979Z,6.90
2023-04-01T13:01:41.599Z,7.47
2023-04-01T13:04:31.435Z,7.20
2023-04-01T13:07:12.252Z,8.57
2023-04-01T13:09:45.097Z,7.97
2023-04-01T13:12:28.903Z,7.30
2023-04-01T13:15:28.139Z,6.73
2023-04-01T13:17:57.118Z,7.53
2023-04-01T13:20:31.327Z,6.87
2023-04-01T13:23:06.229Z,7.30
2023-04-01T13:25:38.519Z,6.83
2023-04-01T13:28:12.676Z,7.00
2023-04-01T13:30:43.354Z,7.57
2023-04-01T13:33:15.866Z,7.27
2023-04-01T13:35:45.782Z,8.30
2023-04-01T13:38:27.024Z,8.83
2023-04-01T13:41:03.040Z,8.47
2023-04-01T13:43:33.919Z,8.20
2023-04-01T13:46:18.365Z,8.90
2023-04-01T13:49:06.019Z,8.27
2023-04-01T13:52:06.193Z,7.40
2023-04-01T13:55:03.757Z,8.77
2023-04-01T13:57:44.857Z,6.20
2023-04-01T14:00:36.189Z,6.43
2023-04-01T14:03:32.398Z,6.37
2023-04-01T14:06:11.367Z,7.60
2023-04-01T14:09:04.805Z,6.13
2023-04-01T14:11:34.739Z,5.80
2023-04-01T14:14:06.786Z,5.67
2023-04-01T14:16:57.377Z,5.83
2023-04-01T14:19:32.342Z,6.40
2023-04-01T14:22:03.104Z,5.67
2023-04-01T14:24:38.356Z,5.90
2023-04-01T14:27:28.998Z,5.60
2023-04-01T14:30:06.075Z,5.47
2023-04-01T14:32:40.819Z,5.93
2023-04-01T14:35:27.828Z,5.60
2023-04-01T14:38:05.091Z,6.00
2023-04-01T14:40:41.015Z,6.57
2023-04-01T14:43:16.955Z,7.70
2023-04-01T14:45:48.511Z,6.60
2023-04-01T14:48:23.719Z,6.70
2023-04-01T14:50:52.136Z,7.43
2023-04-01T14:53:28.428Z,7.60
2023-04-01T14:55:56.949Z,7.43
2023-04-01T14:58:27.145Z,7.03
2023-04-01T15:01:01.029Z,7.03
2023-04-01T15:03:31.873Z,6.57
2023-04-01T15:06:14.446Z,6.53
2023-04-01T15:08:45.468Z,7.47
2023-04-01T15:11:19.759Z,6.20
2023-04-01T15:14:03.561Z,6.20
2023-04-01T15:16:33.832Z,5.77
2023-04-01T15:19:09.446Z,5.97
2023-04-01T15:21:52.052Z,5.27
2023-04-01T15:24:23.560Z,6.03
2023-04-01T15:27:04.141Z,5.80
2023-04-01T15:29:41.355Z,6.97
2023-04-01T15:32:15.724Z,7.00
2023-04-01T15:34:46.631Z,6.30
2023-04-01T15:37:16.819Z,6.43
2023-04-01T15:39:51.044Z,7.20
2023-04-01T15:42:26.541Z,6.83
2023-04-01T15:45:02.404Z,7.17
2023-04-01T15:47:35.155Z,6.90
2023-04-01T15:50:20.467Z,6.90
2023-04-01T15:52:51.832Z,6.27
2023-04-01T15:55:23.009Z,6.33
2023-04-01T15:57:58.412Z,6.10
2023-04-01T16:00:29.695Z,5.83
2023-04-01T16:03:16.358Z,5.23
2023-04-01T16:05:51.221Z,4.80
2023-04-01T16:08:40.398Z,5.27
2023-04-01T16:11:17.940Z,3.93
2023-04-01T16:13:51.191Z,4.40
2023-04-01T16:16:26.912Z,4.47
2023-04-01T16:19:13.414Z,5.30
2023-04-01T16:21:46.298Z,5.47
2023-04-01T16:26:52.394Z,4.97
2023-04-01T16:29:25.276Z,4.60
2023-04-01T16:31:55.086Z,6.07
2023-04-01T16:34:26.851Z,5.47
2023-04-01T16:36:57.944Z,6.63
2023-04-01T16:39:31.063Z,6.07
2023-04-01T16:42:16.164Z,5.83
2023-04-01T16:44:49.250Z,6.80
2023-04-01T16:47:17.890Z,5.60
2023-04-01T16:49:48.601Z,5.40
2023-04-01T16:52:19.567Z,5.83
2023-04-01T16:54:52.459Z,7.77
2023-04-01T16:57:21.865Z,5.83
2023-04-01T16:59:55.357Z,6.63
2023-04-01T17:02:25.657Z,6.50
2023-04-01T17:04:59.470Z,6.43
2023-04-01T17:07:33.618Z,6.40
2023-04-01T17:10:37.848Z,6.13
2023-04-01T17:13:35.390Z,5.97
2023-04-01T17:16:09.208Z,5.93
2023-04-01T17:18:39.583Z,6.10
2023-04-01T17:21:09.797Z,5.67
2023-04-01T17:24:11.477Z,5.30
2023-04-01T17:27:03.458Z,6.30
2023-04-01T17:29:33.903Z,6.80
2023-04-01T17:32:06.049Z,7.80
2023-04-01T17:34:42.249Z,8.00
2023-04-01T17:37:24.305Z,9.33
2023-04-01T17:40:02.520Z,8.67
2023-04-01T17:42:36.568Z,7.83
2023-04-01T17:45:06.481Z,8.60
2023-04-01T17:47:39.787Z,7.00
2023-04-01T17:50:16.362Z,5.80
2023-04-01T17:52:46.021Z,6.67
2023-04-01T17:55:34.236Z,5.63
2023-04-01T17:58:04.503Z,5.80
2023-04-01T18:00:45.968Z,6.53
2023-04-01T18:05:54.558Z,6.83
2023-04-01T18:08:30.170Z,7.23
2023-04-01T18:11:06.773Z,7.30
2023-04-01T18:17:23.557Z,6.63
2023-04-01T18:19:59.747Z,6.70
2023-04-01T18:22:30.778Z,8.17
2023-04-01T18:25:00.805Z,7.43
2023-04-01T18:27:32.652Z,6.93
2023-04-01T18:30:04.435Z,7.90
2023-04-01T18:32:37.859Z,8.40
2023-04-01T18:35:18.446Z,8.40
2023-04-01T18:38:44.528Z,8.23
2023-04-01T18:41:16.203Z,8.13
2023-04-01T18:43:57.025Z,7.33
2023-04-01T18:46:28.196Z,6.43
2023-04-01T18:49:02.887Z,6.60
2023-04-01T18:51:38.957Z,7.50
2023-04-01T18:54:08.136Z,6.83
2023-04-01T18:56:37.161Z,6.23
2023-04-01T18:59:08.516Z,6.17
2023-04-01T19:01:40.087Z,5.67
2023-04-01T19:04:18.369Z,6.10
2023-04-01T19:06:48.613Z,6.20
2023-04-01T19:09:22.471Z,5.67
2023-04-01T19:12:29.044Z,6.53
2023-04-01T19:15:09.624Z,7.17
2023-04-01T19:17:49.686Z,6.57
2023-04-01T19:20:20.690Z,7.83
2023-04-01T19:23:04.541Z,6.43
2023-04-01T19:25:35.391Z,6.10
2023-04-01T19:28:06.626Z,5.90
2023-04-01T19:30:41.127Z,5.70
2023-04-01T19:33:20.468Z,5.83
2023-04-01T19:35:51.053Z,6.97
2023-04-01T19:38:24.677Z,7.37
2023-04-01T19:40:55.730Z,6.30
2023-04-01T19:43:47.526Z,6.53
2023-04-01T19:46:21.525Z,7.00
2023-04-01T19:49:25.033Z,6.70
2023-04-01T19:51:55.856Z,8.30
2023-04-01T19:54:30.567Z,6.97
2023-04-01T19:57:03.115Z,6.13
2023-04-01T19:59:35.879Z,6.27
2023-04-01T20:02:23.766Z,6.57
2023-04-01T20:04:53.318Z,7.07
2023-04-01T20:07:23.975Z,6.87
2023-04-01T20:09:57.284Z,6.97
2023-04-01T20:12:35.084Z,6.00
2023-04-01T20:15:04.961Z,6.10
2023-04-01T20:17:36.205Z,7.20
2023-04-01T20:20:05.429Z,5.87
2023-04-01T20:23:08.019Z,6.47
2023-04-01T20:25:40.717Z,5.30
2023-04-01T20:28:13.749Z,4.90
2023-04-01T20:30:50.333Z,4.73
2023-04-01T20:33:32.729Z,4.17
2023-04-01T20:36:09.642Z,4.40
2023-04-01T20:39:28.328Z,4.30
2023-04-01T20:42:13.426Z,4.07
2023-04-01T20:44:42.885Z,3.67
2023-04-01T20:47:17.196Z,3.63
2023-04-01T20:49:48.541Z,4.00
2023-04-01T20:52:23.032Z,4.87
2023-04-01T20:55:04.474Z,4.60
2023-04-01T20:57:34.133Z,5.07
2023-04-01T21:00:15.701Z,4.10
2023-04-01T21:02:54.116Z,4.50
2023-04-01T21:06:01.380Z,4.53
2023-04-01T21:08:36.433Z,5.50
2023-04-01T21:11:06.816Z,4.80
2023-04-01T21:13:47.221Z,4.80
2023-04-01T21:16:26.065Z,4.60
2023-04-01T21:19:06.772Z,4.13
2023-04-01T21:22:01.665Z,3.40
2023-04-01T21:24:37.471Z,3.87
2023-04-01T21:27:09.479Z,3.93
2023-04-01T21:29:45.833Z,3.40
2023-04-01T21:32:29.285Z,3.60
2023-04-01T21:34:59.035Z,3.10
2023-04-01T21:37:38.450Z,3.60
2023-04-01T21:40:22.076Z,3.40
2023-04-01T21:42:51.365Z,4.60
2023-04-01T21:45:24.639Z,3.93
2023-04-01T21:48:12.137Z,3.73
2023-04-01T21:51:21.346Z,3.47
2023-04-01T21:54:19.416Z,3.60
2023-04-01T21:57:05.491Z,4.33
2023-04-01T22:00:17.204Z,3.73
2023-04-01T22:03:23.952Z,3.03
2023-04-01T22:06:02.049Z,2.70
2023-04-01T22:08:42.037Z,3.17
2023-04-01T22:11:13.379Z,3.30
2023-04-01T22:13:45.254Z,2.10
2023-04-01T22:16:16.283Z,2.60
2023-04-01T22:18:47.218Z,2.57
2023-04-01T22:21:22.174Z,2.00
2023-04-01T22:26:19.961Z,1.70
2023-04-01T22:28:53.488Z,2.70
2023-04-01T22:31:23.850Z,1.40
2023-04-01T22:33:55.103Z,1.20
2023-04-01T22:36:26.079Z,1.10
2023-04-01T22:39:04.477Z,1.53
2023-04-01T22:41:42.690Z,1.40
2023-04-01T22:44:17.900Z,1.10
2023-04-01T22:46:51.495Z,1.00
2023-04-01T22:49:23.309Z,0.97
2023-04-01T22:51:52.917Z,0.90
2023-04-01T22:54:23.360Z,1.13
2023-04-01T22:56:53.667Z,1.30
2023-04-01T22:59:24.951Z,1.10
2023-04-01T23:01:55.121Z,1.20
2023-04-01T23:04:25.777Z,1.10
2023-04-01T23:06:55.793Z,1.20
2023-04-01T23:09:23.751Z,1.20
2023-04-01T23:11:52.942Z,1.60
2023-04-01T23:14:51.088Z,2.17
2023-04-01T23:17:43.048Z,1.90
2023-04-01T23:20:22.633Z,2.03
2023-04-01T23:22:56.988Z,1.67
2023-04-01T23:25:37.517Z,1.50
2023-04-01T23:28:34.343Z,1.40
2023-04-01T23:31:04.569Z,1.53
2023-04-01T23:33:32.558Z,1.40
2023-04-01T23:36:06.209Z,1.30
2023-04-01T23:38:35.459Z,1.63
2023-04-01T23:41:03.195Z,1.60
2023-04-01T23:43:33.190Z,1.53
2023-04-01T23:46:01.927Z,1.70
2023-04-01T23:48:32.680Z,1.30
2023-04-01T23:51:00.424Z,1.47
2023-04-01T23:53:30.457Z,1.50
2023-04-01T23:55:58.131Z,1.50
2023-04-01T23:58:27.890Z,1.50
